createdAt,value
2023-05-16T00:01:59.292Z,1.58
2023-05-16T00:04:26.579Z,1.60
2023-05-16T00:06:53.397Z,1.60
2023-05-16T00:09:20.799Z,1.73
2023-05-16T00:11:48.453Z,1.80
2023-05-16T00:14:15.291Z,1.60
2023-05-16T00:16:42.369Z,1.55
2023-05-16T00:19:10.512Z,1.33
2023-05-16T00:21:37.321Z,1.50
2023-05-16T00:24:05.211Z,1.77
2023-05-16T00:26:32.174Z,1.70
2023-05-16T00:28:59.102Z,1.80
2023-05-16T00:31:26.199Z,1.63
2023-05-16T00:33:52.912Z,2.00
2023-05-16T00:36:20.993Z,1.58
2023-05-16T00:38:49.781Z,2.03
2023-05-16T00:41:17.576Z,1.70
2023-05-16T00:43:45.154Z,1.60
2023-05-16T00:46:12.108Z,1.77
2023-05-16T00:48:39.332Z,2.00
2023-05-16T00:51:09.508Z,1.63
2023-05-16T00:53:37.340Z,1.80
2023-05-16T00:56:06.200Z,1.52
2023-05-16T00:58:34.030Z,1.48
2023-05-16T01:01:03.876Z,1.48
2023-05-16T01:03:31.735Z,1.60
2023-05-16T01:05:59.923Z,1.30
2023-05-16T01:08:26.725Z,1.25
2023-05-16T01:11:23.429Z,1.40
2023-05-16T01:14:08.253Z,1.40
2023-05-16T01:16:50.259Z,1.40
2023-05-16T01:19:38.201Z,1.48
2023-05-16T01:22:16.424Z,1.60
2023-05-16T01:25:22.054Z,1.52
2023-05-16T01:27:49.237Z,1.50
2023-05-16T01:30:19.933Z,1.40
2023-05-16T01:32:47.084Z,1.55
2023-05-16T01:35:16.705Z,1.40
2023-05-16T01:38:24.747Z,1.55
2023-05-16T01:40:52.287Z,1.65
2023-05-16T01:43:33.607Z,1.42
2023-05-16T01:46:08.365Z,1.25
2023-05-16T01:49:03.689Z,1.40
2023-05-16T01:51:33.811Z,1.25
2023-05-16T01:54:06.338Z,1.30
2023-05-16T01:56:34.632Z,1.13
2023-05-16T01:59:02.726Z,1.08
2023-05-16T02:01:32.586Z,1.65
2023-05-16T02:03:59.748Z,1.13
2023-05-16T02:06:26.766Z,1.17
2023-05-16T02:08:54.688Z,1.08
2023-05-16T02:11:22.247Z,1.30
2023-05-16T02:13:49.151Z,1.30
2023-05-16T02:16:15.843Z,1.20
2023-05-16T02:18:42.722Z,1.35
2023-05-16T02:21:09.514Z,1.38
2023-05-16T02:23:36.386Z,1.30
2023-05-16T02:26:03.454Z,1.40
2023-05-16T02:28:30.492Z,1.55
2023-05-16T02:30:58.583Z,1.50
2023-05-16T02:33:27.159Z,1.40
2023-05-16T02:35:54.265Z,1.30
2023-05-16T02:38:21.336Z,1.35
2023-05-16T02:40:48.866Z,1.20
2023-05-16T02:43:15.760Z,1.30
2023-05-16T02:45:42.881Z,1.15
2023-05-16T02:48:09.732Z,1.40
2023-05-16T02:50:37.678Z,1.00
2023-05-16T02:53:04.734Z,1.10
2023-05-16T02:55:31.671Z,1.45
2023-05-16T02:57:58.398Z,1.30
2023-05-16T03:00:25.398Z,1.00
2023-05-16T03:02:52.304Z,1.10
2023-05-16T03:05:19.631Z,0.77
2023-05-16T03:07:46.652Z,0.90
2023-05-16T03:10:13.366Z,0.90
2023-05-16T03:12:40.078Z,0.88
2023-05-16T03:15:08.404Z,0.90
2023-05-16T03:17:36.660Z,1.00
2023-05-16T03:20:04.707Z,1.38
2023-05-16T03:22:31.485Z,1.40
2023-05-16T03:24:58.162Z,0.98
2023-05-16T03:27:27.173Z,1.00
2023-05-16T03:29:53.910Z,0.98
2023-05-16T03:32:20.800Z,1.20
2023-05-16T03:34:47.489Z,1.25
2023-05-16T03:37:16.068Z,1.83
2023-05-16T03:39:42.741Z,1.23
2023-05-16T03:42:09.997Z,2.50
2023-05-16T03:44:36.861Z,2.28
2023-05-16T03:47:03.935Z,1.50
2023-05-16T03:49:30.754Z,2.00
2023-05-16T03:51:57.749Z,1.40
2023-05-16T03:54:24.565Z,1.40
2023-05-16T03:56:51.371Z,1.90
2023-05-16T03:59:18.107Z,1.50
2023-05-16T04:01:44.911Z,1.67
2023-05-16T04:04:11.601Z,1.80
2023-05-16T04:06:38.375Z,1.30
2023-05-16T04:09:06.581Z,1.02
2023-05-16T04:11:34.334Z,1.30
2023-05-16T04:14:01.895Z,1.60
2023-05-16T04:16:28.882Z,1.10
2023-05-16T04:18:56.540Z,0.75
2023-05-16T04:21:23.559Z,1.25
2023-05-16T04:23:50.216Z,1.20
2023-05-16T04:26:16.968Z,1.20
2023-05-16T04:28:43.763Z,1.17
2023-05-16T04:31:11.219Z,1.23
2023-05-16T04:33:37.952Z,1.08
2023-05-16T04:36:06.024Z,1.20
2023-05-16T04:38:32.771Z,1.02
2023-05-16T04:40:59.655Z,1.10
2023-05-16T04:43:26.497Z,1.10
2023-05-16T04:45:54.201Z,1.02
2023-05-16T04:48:21.012Z,1.17
2023-05-16T04:50:47.800Z,1.05
2023-05-16T04:53:15.137Z,1.20
2023-05-16T04:55:41.952Z,1.00
2023-05-16T04:58:08.793Z,1.30
2023-05-16T05:00:35.902Z,0.88
2023-05-16T05:03:02.675Z,1.00
2023-05-16T05:05:29.679Z,1.00
2023-05-16T05:07:58.260Z,1.00
2023-05-16T05:10:24.992Z,1.10
2023-05-16T05:12:51.774Z,1.10
2023-05-16T05:15:19.412Z,0.90
2023-05-16T05:17:46.259Z,0.50
2023-05-16T05:20:13.165Z,0.70
2023-05-16T05:22:39.982Z,0.60
2023-05-16T05:25:06.898Z,0.80
2023-05-16T05:27:33.633Z,0.30
2023-05-16T05:30:00.328Z,0.40
2023-05-16T05:32:27.297Z,0.38
2023-05-16T05:34:54.281Z,0.60
2023-05-16T05:37:21.200Z,0.40
2023-05-16T05:39:47.845Z,0.32
2023-05-16T05:42:14.678Z,0.32
2023-05-16T05:44:41.346Z,0.40
2023-05-16T05:47:08.491Z,0.45
2023-05-16T05:49:36.049Z,0.25
2023-05-16T05:52:02.981Z,0.28
2023-05-16T05:54:30.358Z,0.17
2023-05-16T05:57:00.182Z,0.43
2023-05-16T05:59:27.614Z,0.25
2023-05-16T06:01:54.549Z,0.50
2023-05-16T06:04:24.361Z,0.57
2023-05-16T06:06:51.162Z,0.50
2023-05-16T06:09:17.882Z,0.57
2023-05-16T06:11:46.066Z,0.93
2023-05-16T06:14:14.065Z,0.70
2023-05-16T06:16:40.970Z,0.60
2023-05-16T06:19:08.474Z,0.40
2023-05-16T06:21:35.426Z,0.40
2023-05-16T06:24:02.119Z,0.50
2023-05-16T06:26:29.043Z,0.22
2023-05-16T06:28:56.035Z,0.15
2023-05-16T06:31:22.971Z,0.20
2023-05-16T06:33:49.836Z,0.10
2023-05-16T06:36:16.617Z,0.10
2023-05-16T06:38:43.293Z,0.20
2023-05-16T06:41:10.137Z,0.10
2023-05-16T06:43:36.997Z,0.00
2023-05-16T06:46:04.106Z,0.20
2023-05-16T06:48:30.938Z,0.28
2023-05-16T06:50:57.901Z,0.50
2023-05-16T06:53:24.714Z,0.20
2023-05-16T06:55:51.533Z,0.90
2023-05-16T06:58:18.507Z,0.73
2023-05-16T07:00:45.305Z,0.70
2023-05-16T07:03:12.132Z,0.98
2023-05-16T07:05:39.098Z,0.28
2023-05-16T07:08:07.810Z,0.38
2023-05-16T07:10:34.933Z,0.75
2023-05-16T07:13:02.108Z,0.50
2023-05-16T07:15:29.164Z,0.60
2023-05-16T07:17:56.205Z,0.50
2023-05-16T07:20:23.273Z,0.45
2023-05-16T07:22:52.694Z,0.28
2023-05-16T07:25:19.506Z,0.38
2023-05-16T07:27:46.213Z,0.57
2023-05-16T07:30:13.976Z,0.38
2023-05-16T07:32:43.469Z,0.20
2023-05-16T07:35:10.971Z,0.30
2023-05-16T07:37:37.964Z,0.28
2023-05-16T07:40:05.504Z,1.17
2023-05-16T07:42:32.334Z,0.20
2023-05-16T07:44:59.336Z,0.25
2023-05-16T07:47:26.209Z,0.22
2023-05-16T07:49:53.087Z,0.40
2023-05-16T07:52:20.051Z,0.55
2023-05-16T07:54:47.787Z,0.60
2023-05-16T07:57:15.787Z,0.60
2023-05-16T07:59:43.361Z,0.20
2023-05-16T08:02:11.511Z,0.22
2023-05-16T08:04:38.868Z,0.08
2023-05-16T08:07:06.146Z,0.30
2023-05-16T08:09:33.364Z,0.50
2023-05-16T08:12:03.957Z,0.50
2023-05-16T08:14:32.752Z,0.57
2023-05-16T08:17:00.638Z,0.45
2023-05-16T08:19:27.916Z,0.50
2023-05-16T08:21:55.102Z,0.30
2023-05-16T08:24:22.059Z,0.20
2023-05-16T08:26:48.988Z,0.20
2023-05-16T08:29:15.989Z,0.30
2023-05-16T08:31:42.734Z,0.70
2023-05-16T08:34:10.475Z,0.82
2023-05-16T08:36:37.915Z,0.60
2023-05-16T08:39:05.140Z,0.68
2023-05-16T08:41:32.120Z,0.93
2023-05-16T08:43:59.303Z,1.20
2023-05-16T08:46:28.676Z,1.10
2023-05-16T08:48:59.308Z,0.50
2023-05-16T08:51:28.110Z,0.95
2023-05-16T08:54:01.555Z,0.75
2023-05-16T08:56:28.921Z,0.70
2023-05-16T08:58:58.029Z,0.80
2023-05-16T09:01:24.920Z,4.22
2023-05-16T09:03:52.969Z,1.55
2023-05-16T09:06:19.973Z,1.60
2023-05-16T09:08:47.953Z,0.30
2023-05-16T09:11:15.000Z,0.55
2023-05-16T09:13:41.728Z,0.75
2023-05-16T09:16:10.572Z,0.50
2023-05-16T09:18:38.051Z,0.65
2023-05-16T09:21:08.122Z,0.40
2023-05-16T09:23:37.078Z,0.45
2023-05-16T09:26:08.138Z,0.55
2023-05-16T09:28:38.672Z,0.10
2023-05-16T09:31:20.768Z,0.08
2023-05-16T09:33:49.192Z,0.00
2023-05-16T09:36:16.607Z,0.00
2023-05-16T09:38:43.858Z,0.10
2023-05-16T09:41:10.968Z,0.28
2023-05-16T09:43:43.800Z,0.40
2023-05-16T09:46:15.608Z,0.08
2023-05-16T09:48:48.041Z,0.08
2023-05-16T09:51:15.022Z,0.10
2023-05-16T09:53:41.993Z,0.00
2023-05-16T09:56:11.854Z,0.10
2023-05-16T09:58:40.422Z,0.20
2023-05-16T10:01:08.970Z,0.30
2023-05-16T10:03:37.960Z,0.10
2023-05-16T10:06:06.852Z,0.30
2023-05-16T10:08:36.642Z,0.10
2023-05-16T10:11:05.957Z,0.35
2023-05-16T10:13:35.289Z,0.63
2023-05-16T10:16:08.231Z,0.38
2023-05-16T10:18:35.927Z,0.25
2023-05-16T10:21:09.602Z,0.20
2023-05-16T10:23:42.780Z,0.32
2023-05-16T10:26:14.135Z,0.55
2023-05-16T10:28:41.725Z,0.20
2023-05-16T10:31:11.522Z,0.50
2023-05-16T10:33:39.476Z,0.57
2023-05-16T10:36:08.310Z,0.50
2023-05-16T10:38:36.570Z,0.73
2023-05-16T10:41:03.833Z,0.63
2023-05-16T10:43:31.169Z,0.47
2023-05-16T10:46:02.903Z,0.60
2023-05-16T10:48:40.911Z,0.30
2023-05-16T10:51:35.426Z,0.57
2023-05-16T10:54:10.029Z,0.75
2023-05-16T10:56:37.537Z,0.40
2023-05-16T10:59:07.164Z,0.50
2023-05-16T11:01:35.666Z,0.55
2023-05-16T11:04:08.490Z,0.52
2023-05-16T11:06:41.891Z,0.40
2023-05-16T11:09:28.303Z,0.47
2023-05-16T11:12:00.143Z,0.52
2023-05-16T11:14:37.589Z,0.25
2023-05-16T11:17:08.310Z,0.70
2023-05-16T11:19:48.216Z,0.70
2023-05-16T11:22:22.025Z,0.52
2023-05-16T11:25:00.101Z,0.70
2023-05-16T11:27:31.064Z,0.50
2023-05-16T11:30:12.874Z,0.80
2023-05-16T11:32:41.953Z,0.57
2023-05-16T11:35:14.313Z,0.90
2023-05-16T11:37:42.352Z,0.40
2023-05-16T11:40:12.297Z,1.05
2023-05-16T11:42:42.041Z,1.27
2023-05-16T11:45:10.059Z,0.70
2023-05-16T11:47:38.834Z,0.60
2023-05-16T11:50:15.458Z,0.43
2023-05-16T11:52:48.710Z,0.52
2023-05-16T11:55:39.408Z,0.30
2023-05-16T11:58:06.653Z,0.40
2023-05-16T12:00:33.763Z,0.30
2023-05-16T12:03:04.694Z,0.60
2023-05-16T12:05:33.255Z,0.47
2023-05-16T12:08:01.026Z,0.50
2023-05-16T12:10:28.101Z,0.47
2023-05-16T12:12:55.329Z,0.50
2023-05-16T12:15:22.715Z,0.35
2023-05-16T12:17:50.885Z,0.57
2023-05-16T12:20:18.366Z,0.45
2023-05-16T12:22:46.454Z,0.40
2023-05-16T12:25:22.972Z,0.38
2023-05-16T12:27:49.808Z,0.20
2023-05-16T12:30:22.488Z,0.38
2023-05-16T12:33:00.768Z,0.30
2023-05-16T12:35:32.312Z,0.25
2023-05-16T12:38:00.360Z,0.60
2023-05-16T12:40:30.856Z,0.35
2023-05-16T12:45:28.016Z,0.20
2023-05-16T12:47:55.334Z,0.50
2023-05-16T12:50:23.080Z,0.20
2023-05-16T12:52:51.757Z,0.40
2023-05-16T12:55:19.763Z,0.20
2023-05-16T12:57:47.984Z,0.20
2023-05-16T13:00:19.180Z,0.32
2023-05-16T13:02:47.584Z,0.25
2023-05-16T13:05:15.190Z,0.20
2023-05-16T13:07:42.234Z,0.25
2023-05-16T13:10:13.493Z,0.20
2023-05-16T13:12:41.530Z,0.20
2023-05-16T13:15:10.637Z,0.15
2023-05-16T13:17:41.995Z,0.10
2023-05-16T13:20:10.204Z,0.10
2023-05-16T13:22:37.691Z,0.20
2023-05-16T13:25:06.583Z,0.10
2023-05-16T13:27:34.181Z,0.13
2023-05-16T13:30:01.560Z,0.15
2023-05-16T13:32:28.504Z,0.30
2023-05-16T13:34:55.321Z,0.10
2023-05-16T13:37:24.488Z,0.05
2023-05-16T13:39:51.496Z,0.13
2023-05-16T13:42:18.249Z,0.30
2023-05-16T13:44:45.088Z,0.30
2023-05-16T13:47:12.088Z,0.68
2023-05-16T13:49:39.192Z,0.30
2023-05-16T13:52:06.753Z,0.10
2023-05-16T13:54:33.754Z,0.20
2023-05-16T13:57:02.302Z,0.30
2023-05-16T13:59:55.203Z,0.40
2023-05-16T14:02:16.414Z,0.20
2023-05-16T14:04:43.152Z,0.43
2023-05-16T14:07:10.022Z,0.30
2023-05-16T14:09:39.446Z,0.47
2023-05-16T14:12:09.557Z,0.30
2023-05-16T14:14:37.241Z,0.45
2023-05-16T14:17:04.382Z,0.10
2023-05-16T14:19:31.682Z,0.40
2023-05-16T14:21:58.746Z,0.73
2023-05-16T14:24:25.586Z,0.90
2023-05-16T14:26:58.077Z,0.93
2023-05-16T14:29:25.949Z,1.30
2023-05-16T14:31:53.439Z,0.85
2023-05-16T14:34:22.478Z,0.88
2023-05-16T14:36:49.983Z,0.70
2023-05-16T14:39:16.776Z,0.65
2023-05-16T14:41:43.744Z,0.40
2023-05-16T14:44:10.581Z,0.30
2023-05-16T14:46:37.544Z,0.57
2023-05-16T14:49:04.365Z,0.40
2023-05-16T14:51:32.402Z,0.17
2023-05-16T14:53:59.220Z,0.30
2023-05-16T14:56:28.193Z,0.35
2023-05-16T14:58:55.036Z,1.20
2023-05-16T15:01:22.683Z,0.52
2023-05-16T15:03:56.055Z,0.60
2023-05-16T15:06:24.785Z,0.52
2023-05-16T15:08:51.947Z,0.63
2023-05-16T15:11:18.788Z,1.00
2023-05-16T15:13:45.603Z,1.02
2023-05-16T15:16:12.965Z,0.80
2023-05-16T15:18:41.803Z,1.10
2023-05-16T15:21:09.126Z,0.90
2023-05-16T15:23:39.244Z,1.30
2023-05-16T15:26:06.670Z,1.10
2023-05-16T15:28:33.522Z,1.10
2023-05-16T15:31:00.549Z,1.38
2023-05-16T15:33:27.537Z,1.70
2023-05-16T15:35:54.301Z,1.60
2023-05-16T15:38:21.075Z,1.40
2023-05-16T15:40:50.766Z,2.60
2023-05-16T15:43:24.925Z,2.47
2023-05-16T15:45:51.856Z,2.40
2023-05-16T15:48:18.768Z,2.17
2023-05-16T15:50:45.708Z,1.50
2023-05-16T15:53:12.481Z,1.40
2023-05-16T15:55:39.325Z,1.30
2023-05-16T15:58:07.396Z,1.40
2023-05-16T16:00:34.428Z,1.27
2023-05-16T16:03:01.561Z,1.30
2023-05-16T16:05:28.635Z,1.63
2023-05-16T16:07:55.820Z,1.05
2023-05-16T16:10:22.856Z,1.30
2023-05-16T16:13:03.643Z,1.48
2023-05-16T16:15:32.948Z,1.27
2023-05-16T16:18:00.978Z,1.30
2023-05-16T16:20:28.210Z,1.48
2023-05-16T16:22:55.186Z,0.88
2023-05-16T16:25:22.164Z,1.00
2023-05-16T16:27:49.008Z,1.77
2023-05-16T16:30:15.845Z,1.40
2023-05-16T16:32:42.722Z,1.13
2023-05-16T16:35:09.851Z,0.93
2023-05-16T16:37:36.756Z,1.20
2023-05-16T16:40:04.977Z,1.20
2023-05-16T16:42:31.787Z,1.00
2023-05-16T16:44:59.330Z,0.82
2023-05-16T16:47:26.466Z,1.17
2023-05-16T16:49:53.222Z,1.10
2023-05-16T16:52:19.988Z,0.98
2023-05-16T16:54:46.750Z,1.10
2023-05-16T16:57:13.578Z,1.33
2023-05-16T16:59:40.369Z,1.30
2023-05-16T17:02:07.403Z,1.30
2023-05-16T17:04:36.996Z,1.20
2023-05-16T17:07:03.956Z,1.00
2023-05-16T17:09:30.807Z,2.42
2023-05-16T17:11:57.709Z,3.83
2023-05-16T17:14:24.458Z,2.92
2023-05-16T17:16:51.643Z,2.25
2023-05-16T17:19:18.416Z,1.38
2023-05-16T17:21:45.715Z,1.40
2023-05-16T17:24:12.474Z,1.48
2023-05-16T17:26:39.322Z,1.80
2023-05-16T17:29:06.137Z,1.70
2023-05-16T17:31:32.996Z,1.63
2023-05-16T17:33:59.751Z,1.60
2023-05-16T17:36:26.702Z,2.00
2023-05-16T17:38:53.519Z,1.60
2023-05-16T17:41:20.632Z,2.10
2023-05-16T17:43:47.709Z,1.90
2023-05-16T17:46:14.595Z,2.17
2023-05-16T17:48:42.405Z,1.83
2023-05-16T17:51:09.753Z,1.80
2023-05-16T17:53:37.786Z,2.08
2023-05-16T17:56:05.128Z,1.42
2023-05-16T17:58:31.861Z,1.52
2023-05-16T18:00:58.865Z,1.38
2023-05-16T18:03:25.663Z,1.15
2023-05-16T18:05:52.694Z,1.30
2023-05-16T18:08:19.810Z,1.30
2023-05-16T18:10:52.007Z,1.23
2023-05-16T18:13:19.470Z,1.50
2023-05-16T18:15:46.273Z,1.20
2023-05-16T18:18:13.418Z,1.20
2023-05-16T18:20:41.016Z,1.40
2023-05-16T18:23:08.671Z,1.50
2023-05-16T18:25:35.688Z,1.38
2023-05-16T18:28:03.729Z,1.10
2023-05-16T18:30:30.732Z,1.13
2023-05-16T18:32:57.559Z,1.20
2023-05-16T18:35:24.559Z,0.90
2023-05-16T18:37:51.391Z,1.10
2023-05-16T18:40:18.446Z,1.63
2023-05-16T18:42:45.344Z,1.70
2023-05-16T18:45:12.244Z,1.80
2023-05-16T18:47:39.226Z,2.20
2023-05-16T18:50:06.902Z,2.20
2023-05-16T18:52:35.455Z,2.17
2023-05-16T18:55:02.622Z,2.00
2023-05-16T18:57:29.722Z,1.90
2023-05-16T18:59:56.956Z,2.00
2023-05-16T19:02:34.056Z,1.92
2023-05-16T19:05:09.667Z,1.98
2023-05-16T19:07:36.910Z,2.30
2023-05-16T19:10:04.478Z,2.30
2023-05-16T19:12:32.046Z,2.28
2023-05-16T19:14:58.996Z,2.53
2023-05-16T19:17:25.864Z,2.50
2023-05-16T19:19:53.164Z,2.17
2023-05-16T19:22:19.966Z,2.47
2023-05-16T19:24:47.005Z,1.90
2023-05-16T19:27:13.996Z,1.83
2023-05-16T19:29:40.882Z,1.90
2023-05-16T19:32:08.065Z,1.98
2023-05-16T19:34:34.972Z,1.77
2023-05-16T19:37:03.415Z,2.72
2023-05-16T19:39:32.183Z,3.00
2023-05-16T19:42:06.624Z,2.35
2023-05-16T19:44:34.927Z,3.08
2023-05-16T19:47:01.916Z,2.83
2023-05-16T19:49:31.686Z,3.47
2023-05-16T19:51:58.423Z,2.80
2023-05-16T19:54:25.875Z,2.80
2023-05-16T19:56:53.725Z,3.00
2023-05-16T19:59:20.887Z,2.40
2023-05-16T20:01:47.782Z,2.47
2023-05-16T20:04:15.062Z,2.80
2023-05-16T20:06:42.092Z,2.67
2023-05-16T20:09:09.129Z,2.67
2023-05-16T20:11:35.927Z,2.45
2023-05-16T20:14:03.297Z,2.53
2023-05-16T20:16:30.032Z,1.80
2023-05-16T20:18:59.388Z,1.80
2023-05-16T20:21:26.486Z,1.65
2023-05-16T20:23:53.491Z,1.45
2023-05-16T20:26:21.605Z,1.63
2023-05-16T20:28:48.530Z,1.63
2023-05-16T20:31:15.434Z,1.38
2023-05-16T20:33:42.269Z,1.52
2023-05-16T20:36:11.778Z,1.30
2023-05-16T20:38:39.174Z,1.50
2023-05-16T20:41:06.024Z,1.20
2023-05-16T20:43:32.892Z,1.30
2023-05-16T20:45:59.738Z,1.40
2023-05-16T20:48:26.739Z,1.60
2023-05-16T20:50:54.679Z,1.38
2023-05-16T20:53:21.586Z,1.42
2023-05-16T20:55:48.512Z,1.50
2023-05-16T20:58:18.287Z,1.60
2023-05-16T21:00:45.218Z,1.80
2023-05-16T21:03:15.281Z,1.60
2023-05-16T21:05:42.242Z,1.90
2023-05-16T21:08:09.153Z,3.15
2023-05-16T21:10:35.975Z,2.92
2023-05-16T21:13:02.884Z,2.65
2023-05-16T21:15:32.331Z,2.42
2023-05-16T21:17:59.544Z,2.33
2023-05-16T21:20:28.617Z,2.00
2023-05-16T21:22:55.500Z,2.20
2023-05-16T21:25:23.430Z,1.88
2023-05-16T21:27:50.364Z,1.63
2023-05-16T21:30:17.313Z,1.73
2023-05-16T21:32:44.504Z,1.85
2023-05-16T21:35:11.513Z,2.00
2023-05-16T21:37:38.443Z,2.50
2023-05-16T21:40:09.056Z,2.35
2023-05-16T21:45:03.277Z,2.28
2023-05-16T21:47:30.042Z,1.80
2023-05-16T21:49:56.964Z,1.42
2023-05-16T21:52:23.951Z,1.48
2023-05-16T21:54:52.157Z,1.30
2023-05-16T21:57:19.699Z,1.88
2023-05-16T21:59:46.602Z,1.33
2023-05-16T22:02:13.457Z,1.08
2023-05-16T22:04:40.318Z,1.05
2023-05-16T22:07:07.175Z,1.20
2023-05-16T22:09:33.933Z,1.02
2023-05-16T22:12:01.058Z,1.20
2023-05-16T22:14:27.945Z,1.13
2023-05-16T22:16:54.763Z,1.23
2023-05-16T22:19:21.812Z,1.27
2023-05-16T22:21:50.141Z,1.40
2023-05-16T22:24:17.045Z,1.70
2023-05-16T22:26:43.960Z,1.30
2023-05-16T22:29:10.969Z,1.30
2023-05-16T22:31:37.783Z,1.15
2023-05-16T22:34:04.748Z,1.20
2023-05-16T22:36:31.518Z,1.10
2023-05-16T22:38:58.314Z,1.30
2023-05-16T22:41:25.342Z,1.25
2023-05-16T22:43:52.847Z,1.50
2023-05-16T22:46:19.613Z,1.60
2023-05-16T22:48:46.603Z,1.38
2023-05-16T22:51:13.429Z,1.08
2023-05-16T22:53:43.355Z,1.13
2023-05-16T22:56:10.162Z,1.60
2023-05-16T22:58:36.978Z,1.13
2023-05-16T23:01:05.027Z,1.40
2023-05-16T23:03:31.988Z,1.20
2023-05-16T23:05:58.959Z,1.50
2023-05-16T23:08:25.763Z,1.33
2023-05-16T23:10:52.624Z,1.20
2023-05-16T23:13:19.395Z,1.10
2023-05-16T23:15:46.130Z,1.20
2023-05-16T23:18:13.017Z,1.30
2023-05-16T23:20:39.894Z,1.30
2023-05-16T23:23:06.679Z,1.10
2023-05-16T23:25:33.569Z,1.10
2023-05-16T23:28:00.328Z,1.45
2023-05-16T23:30:27.116Z,1.30
2023-05-16T23:32:55.172Z,0.98
2023-05-16T23:35:22.149Z,1.88
2023-05-16T23:37:49.060Z,1.08
2023-05-16T23:40:16.235Z,1.00
2023-05-16T23:42:42.930Z,1.40
2023-05-16T23:45:10.400Z,1.10
2023-05-16T23:47:37.404Z,1.00
2023-05-16T23:50:04.646Z,1.15
2023-05-16T23:52:31.557Z,1.13
2023-05-16T23:54:58.417Z,0.77
2023-05-16T23:57:25.994Z,0.80
2023-05-16T23:59:52.795Z,0.90
